sensor_id;sensor_type;location;lat;lon;timestamp;temperature;humidity
17740;DHT22;8990;33.226;-97.150;2023-02-15T00:02:04;18.90;99.90
17740;DHT22;8990;33.226;-97.150;2023-02-15T00:04:35;18.80;99.90
17740;DHT22;8990;33.226;-97.150;2023-02-15T00:07:18;18.60;99.90
17740;DHT22;8990;33.226;-97.150;2023-02-15T00:09:48;18.60;99.90
17740;DHT22;8990;33.226;-97.150;2023-02-15T00:12:20;18.40;99.90
17740;DHT22;8990;33.226;-97.150;2023-02-15T00:14:49;18.30;99.90
17740;DHT22;8990;33.226;-97.150;2023-02-15T00:17:19;18.20;99.90
17740;DHT22;8990;33.226;-97.150;2023-02-15T00:19:50;18.10;99.90
17740;DHT22;8990;33.226;-97.150;2023-02-15T00:22:19;18.00;99.90
17740;DHT22;8990;33.226;-97.150;2023-02-15T00:24:50;17.90;99.90
17740;DHT22;8990;33.226;-97.150;2023-02-15T00:27:20;17.90;99.90
17740;DHT22;8990;33.226;-97.150;2023-02-15T00:29:51;17.70;99.90
17740;DHT22;8990;33.226;-97.150;2023-02-15T00:32:21;17.60;99.90
17740;DHT22;8990;33.226;-97.150;2023-02-15T00:34:52;17.60;99.90
17740;DHT22;8990;33.226;-97.150;2023-02-15T00:37:21;17.50;99.90
17740;DHT22;8990;33.226;-97.150;2023-02-15T00:39:51;17.50;99.90
17740;DHT22;8990;33.226;-97.150;2023-02-15T00:42:22;17.40;99.90
17740;DHT22;8990;33.226;-97.150;2023-02-15T00:44:52;17.30;99.90
17740;DHT22;8990;33.226;-97.150;2023-02-15T00:47:22;17.20;99.90
17740;DHT22;8990;33.226;-97.150;2023-02-15T00:49:53;17.20;99.90
17740;DHT22;8990;33.226;-97.150;2023-02-15T00:52:21;17.20;99.90
17740;DHT22;8990;33.226;-97.150;2023-02-15T00:54:51;17.20;99.90
17740;DHT22;8990;33.226;-97.150;2023-02-15T00:57:22;17.30;99.90
17740;DHT22;8990;33.226;-97.150;2023-02-15T00:59:52;17.20;99.90
17740;DHT22;8990;33.226;-97.150;2023-02-15T01:02:22;17.10;99.90
17740;DHT22;8990;33.226;-97.150;2023-02-15T01:04:52;17.10;99.90
17740;DHT22;8990;33.226;-97.150;2023-02-15T01:07:23;17.00;99.90
17740;DHT22;8990;33.226;-97.150;2023-02-15T01:09:53;16.90;99.90
17740;DHT22;8990;33.226;-97.150;2023-02-15T01:12:24;16.80;99.90
17740;DHT22;8990;33.226;-97.150;2023-02-15T01:14:54;16.70;99.90
17740;DHT22;8990;33.226;-97.150;2023-02-15T01:17:24;16.70;99.90
17740;DHT22;8990;33.226;-97.150;2023-02-15T01:19:54;16.60;99.90
17740;DHT22;8990;33.226;-97.150;2023-02-15T01:22:23;16.60;99.90
17740;DHT22;8990;33.226;-97.150;2023-02-15T01:24:55;16.50;99.90
17740;DHT22;8990;33.226;-97.150;2023-02-15T01:27:26;16.50;99.90
17740;DHT22;8990;33.226;-97.150;2023-02-15T01:29:57;16.40;99.90
17740;DHT22;8990;33.226;-97.150;2023-02-15T01:32:27;16.60;99.90
17740;DHT22;8990;33.226;-97.150;2023-02-15T01:34:56;16.40;99.90
17740;DHT22;8990;33.226;-97.150;2023-02-15T01:37:25;16.40;99.90
17740;DHT22;8990;33.226;-97.150;2023-02-15T01:39:55;16.40;99.90
17740;DHT22;8990;33.226;-97.150;2023-02-15T01:42:27;16.40;99.90
17740;DHT22;8990;33.226;-97.150;2023-02-15T01:45:00;16.40;99.90
17740;DHT22;8990;33.226;-97.150;2023-02-15T01:47:35;16.40;99.90
17740;DHT22;8990;33.226;-97.150;2023-02-15T01:50:12;16.40;99.90
17740;DHT22;8990;33.226;-97.150;2023-02-15T01:52:49;16.40;99.90
17740;DHT22;8990;33.226;-97.150;2023-02-15T01:55:21;16.30;99.90
17740;DHT22;8990;33.226;-97.150;2023-02-15T01:57:53;16.30;99.90
17740;DHT22;8990;33.226;-97.150;2023-02-15T02:00:22;16.30;99.90
17740;DHT22;8990;33.226;-97.150;2023-02-15T02:02:54;16.30;99.90
17740;DHT22;8990;33.226;-97.150;2023-02-15T02:05:25;16.30;99.90
17740;DHT22;8990;33.226;-97.150;2023-02-15T02:07:57;16.30;99.90
17740;DHT22;8990;33.226;-97.150;2023-02-15T02:10:28;16.30;99.90
17740;DHT22;8990;33.226;-97.150;2023-02-15T02:13:01;16.30;99.90
17740;DHT22;8990;33.226;-97.150;2023-02-15T02:15:39;16.30;99.90
17740;DHT22;8990;33.226;-97.150;2023-02-15T02:18:20;16.20;99.90
17740;DHT22;8990;33.226;-97.150;2023-02-15T02:21:10;16.20;99.90
17740;DHT22;8990;33.226;-97.150;2023-02-15T02:24:03;16.10;99.90
17740;DHT22;8990;33.226;-97.150;2023-02-15T02:26:58;16.00;99.90
17740;DHT22;8990;33.226;-97.150;2023-02-15T02:32:59;16.00;99.90
17740;DHT22;8990;33.226;-97.150;2023-02-15T02:35:38;15.80;99.90
17740;DHT22;8990;33.226;-97.150;2023-02-15T02:38:16;15.90;99.90
17740;DHT22;8990;33.226;-97.150;2023-02-15T02:40:54;15.90;99.90
17740;DHT22;8990;33.226;-97.150;2023-02-15T02:43:31;15.80;99.90
17740;DHT22;8990;33.226;-97.150;2023-02-15T02:46:06;15.80;99.90
17740;DHT22;8990;33.226;-97.150;2023-02-15T02:48:40;15.80;99.90
17740;DHT22;8990;33.226;-97.150;2023-02-15T02:51:13;15.70;99.90
17740;DHT22;8990;33.226;-97.150;2023-02-15T02:53:50;15.60;99.90
17740;DHT22;8990;33.226;-97.150;2023-02-15T02:56:26;15.60;99.90
17740;DHT22;8990;33.226;-97.150;2023-02-15T02:59:00;15.50;99.90
17740;DHT22;8990;33.226;-97.150;2023-02-15T03:01:34;15.30;99.90
17740;DHT22;8990;33.226;-97.150;2023-02-15T03:04:11;15.20;99.90
17740;DHT22;8990;33.226;-97.150;2023-02-15T03:06:51;15.20;99.90
17740;DHT22;8990;33.226;-97.150;2023-02-15T03:09:25;15.10;99.90
17740;DHT22;8990;33.226;-97.150;2023-02-15T03:12:09;15.00;99.90
17740;DHT22;8990;33.226;-97.150;2023-02-15T03:14:46;14.90;99.90
17740;DHT22;8990;33.226;-97.150;2023-02-15T03:17:18;14.90;99.90
17740;DHT22;8990;33.226;-97.150;2023-02-15T03:19:52;14.80;99.90
17740;DHT22;8990;33.226;-97.150;2023-02-15T03:22:28;14.70;99.90
17740;DHT22;8990;33.226;-97.150;2023-02-15T03:25:04;14.70;99.90
17740;DHT22;8990;33.226;-97.150;2023-02-15T03:27:38;14.70;99.90
17740;DHT22;8990;33.226;-97.150;2023-02-15T03:30:12;14.60;99.90
17740;DHT22;8990;33.226;-97.150;2023-02-15T03:32:43;14.50;99.90
17740;DHT22;8990;33.226;-97.150;2023-02-15T03:35:16;14.50;99.90
17740;DHT22;8990;33.226;-97.150;2023-02-15T03:37:48;14.50;99.90
17740;DHT22;8990;33.226;-97.150;2023-02-15T03:40:24;14.50;99.90
17740;DHT22;8990;33.226;-97.150;2023-02-15T03:43:15;14.50;99.90
17740;DHT22;8990;33.226;-97.150;2023-02-15T03:45:49;14.50;99.90
17740;DHT22;8990;33.226;-97.150;2023-02-15T03:48:26;14.50;99.90
17740;DHT22;8990;33.226;-97.150;2023-02-15T03:51:00;14.50;99.90
17740;DHT22;8990;33.226;-97.150;2023-02-15T03:53:47;14.50;99.90
17740;DHT22;8990;33.226;-97.150;2023-02-15T03:56:17;14.40;99.90
17740;DHT22;8990;33.226;-97.150;2023-02-15T03:58:47;14.40;99.90
17740;DHT22;8990;33.226;-97.150;2023-02-15T04:01:36;14.40;99.90
17740;DHT22;8990;33.226;-97.150;2023-02-15T04:04:32;14.40;99.90
17740;DHT22;8990;33.226;-97.150;2023-02-15T04:07:06;14.40;99.90
17740;DHT22;8990;33.226;-97.150;2023-02-15T04:09:36;14.40;99.90
17740;DHT22;8990;33.226;-97.150;2023-02-15T04:12:22;14.40;99.90
17740;DHT22;8990;33.226;-97.150;2023-02-15T04:14:52;14.30;99.90
17740;DHT22;8990;33.226;-97.150;2023-02-15T04:17:39;14.30;99.90
17740;DHT22;8990;33.226;-97.150;2023-02-15T04:20:09;14.30;99.90
17740;DHT22;8990;33.226;-97.150;2023-02-15T04:22:58;14.20;99.90
17740;DHT22;8990;33.226;-97.150;2023-02-15T04:25:48;14.20;99.90
17740;DHT22;8990;33.226;-97.150;2023-02-15T04:28:18;14.20;99.90
17740;DHT22;8990;33.226;-97.150;2023-02-15T04:30:48;14.20;99.90
17740;DHT22;8990;33.226;-97.150;2023-02-15T04:33:17;14.20;99.90
17740;DHT22;8990;33.226;-97.150;2023-02-15T04:35:47;14.10;99.90
17740;DHT22;8990;33.226;-97.150;2023-02-15T04:38:18;14.20;99.90
17740;DHT22;8990;33.226;-97.150;2023-02-15T04:40:50;14.20;99.90
17740;DHT22;8990;33.226;-97.150;2023-02-15T04:43:20;14.10;99.90
17740;DHT22;8990;33.226;-97.150;2023-02-15T04:45:50;14.10;99.90
17740;DHT22;8990;33.226;-97.150;2023-02-15T04:48:21;14.10;99.90
17740;DHT22;8990;33.226;-97.150;2023-02-15T04:50:50;14.10;99.90
17740;DHT22;8990;33.226;-97.150;2023-02-15T04:53:21;14.10;99.90
17740;DHT22;8990;33.226;-97.150;2023-02-15T04:55:51;14.10;99.90
17740;DHT22;8990;33.226;-97.150;2023-02-15T04:58:20;14.10;99.90
17740;DHT22;8990;33.226;-97.150;2023-02-15T05:00:50;14.00;99.90
17740;DHT22;8990;33.226;-97.150;2023-02-15T05:03:19;14.00;99.90
17740;DHT22;8990;33.226;-97.150;2023-02-15T05:05:48;13.90;99.90
17740;DHT22;8990;33.226;-97.150;2023-02-15T05:08:17;13.90;99.90
17740;DHT22;8990;33.226;-97.150;2023-02-15T05:10:50;13.90;99.90
17740;DHT22;8990;33.226;-97.150;2023-02-15T05:13:19;13.90;99.90
17740;DHT22;8990;33.226;-97.150;2023-02-15T05:15:50;13.90;99.90
17740;DHT22;8990;33.226;-97.150;2023-02-15T05:18:20;13.90;99.90
17740;DHT22;8990;33.226;-97.150;2023-02-15T05:20:49;13.90;99.90
17740;DHT22;8990;33.226;-97.150;2023-02-15T05:23:19;13.90;99.90
17740;DHT22;8990;33.226;-97.150;2023-02-15T05:25:50;13.80;99.90
17740;DHT22;8990;33.226;-97.150;2023-02-15T05:31:27;13.80;99.90
17740;DHT22;8990;33.226;-97.150;2023-02-15T05:33:56;13.80;99.90
17740;DHT22;8990;33.226;-97.150;2023-02-15T05:36:26;13.80;99.90
17740;DHT22;8990;33.226;-97.150;2023-02-15T05:38:56;13.80;99.90
17740;DHT22;8990;33.226;-97.150;2023-02-15T05:41:27;13.80;99.90
17740;DHT22;8990;33.226;-97.150;2023-02-15T05:43:56;13.80;99.90
17740;DHT22;8990;33.226;-97.150;2023-02-15T05:46:27;13.70;99.90
17740;DHT22;8990;33.226;-97.150;2023-02-15T05:48:56;13.60;99.90
17740;DHT22;8990;33.226;-97.150;2023-02-15T05:51:26;13.60;99.90
17740;DHT22;8990;33.226;-97.150;2023-02-15T05:53:56;13.60;99.90
17740;DHT22;8990;33.226;-97.150;2023-02-15T05:56:27;13.60;99.90
17740;DHT22;8990;33.226;-97.150;2023-02-15T05:58:57;13.40;99.90
17740;DHT22;8990;33.226;-97.150;2023-02-15T06:01:27;13.40;99.90
17740;DHT22;8990;33.226;-97.150;2023-02-15T06:03:56;13.40;99.90
17740;DHT22;8990;33.226;-97.150;2023-02-15T06:06:25;13.40;99.90
17740;DHT22;8990;33.226;-97.150;2023-02-15T06:08:54;13.30;99.90
17740;DHT22;8990;33.226;-97.150;2023-02-15T06:11:24;13.30;99.90
17740;DHT22;8990;33.226;-97.150;2023-02-15T06:13:55;13.30;99.90
17740;DHT22;8990;33.226;-97.150;2023-02-15T06:16:25;13.30;99.90
17740;DHT22;8990;33.226;-97.150;2023-02-15T06:18:54;13.30;99.90
17740;DHT22;8990;33.226;-97.150;2023-02-15T06:21:26;13.30;99.90
17740;DHT22;8990;33.226;-97.150;2023-02-15T06:23:56;13.30;99.90
17740;DHT22;8990;33.226;-97.150;2023-02-15T06:26:26;13.30;99.90
17740;DHT22;8990;33.226;-97.150;2023-02-15T06:28:56;13.30;99.90
17740;DHT22;8990;33.226;-97.150;2023-02-15T06:31:26;13.20;99.90
17740;DHT22;8990;33.226;-97.150;2023-02-15T06:33:57;13.20;99.90
17740;DHT22;8990;33.226;-97.150;2023-02-15T06:36:29;13.20;99.90
17740;DHT22;8990;33.226;-97.150;2023-02-15T06:38:58;13.20;99.90
17740;DHT22;8990;33.226;-97.150;2023-02-15T06:41:29;13.20;99.90
17740;DHT22;8990;33.226;-97.150;2023-02-15T06:43:59;13.20;99.90
17740;DHT22;8990;33.226;-97.150;2023-02-15T06:46:29;13.20;99.90
17740;DHT22;8990;33.226;-97.150;2023-02-15T06:48:58;13.20;99.90
17740;DHT22;8990;33.226;-97.150;2023-02-15T06:51:27;13.10;99.90
17740;DHT22;8990;33.226;-97.150;2023-02-15T06:53:56;13.20;99.90
17740;DHT22;8990;33.226;-97.150;2023-02-15T06:56:25;13.20;99.90
17740;DHT22;8990;33.226;-97.150;2023-02-15T06:58:54;13.30;99.90
17740;DHT22;8990;33.226;-97.150;2023-02-15T07:01:25;13.30;99.90
17740;DHT22;8990;33.226;-97.150;2023-02-15T07:03:54;13.30;99.90
17740;DHT22;8990;33.226;-97.150;2023-02-15T07:06:24;13.50;99.90
17740;DHT22;8990;33.226;-97.150;2023-02-15T07:08:54;13.40;99.90
17740;DHT22;8990;33.226;-97.150;2023-02-15T07:11:24;13.40;99.90
17740;DHT22;8990;33.226;-97.150;2023-02-15T07:14:12;13.40;99.90
17740;DHT22;8990;33.226;-97.150;2023-02-15T07:16:44;13.40;99.90
17740;DHT22;8990;33.226;-97.150;2023-02-15T07:19:13;13.40;99.90
17740;DHT22;8990;33.226;-97.150;2023-02-15T07:21:44;13.40;99.90
17740;DHT22;8990;33.226;-97.150;2023-02-15T07:24:14;13.40;99.90
17740;DHT22;8990;33.226;-97.150;2023-02-15T07:26:44;13.40;99.90
17740;DHT22;8990;33.226;-97.150;2023-02-15T07:29:13;13.40;99.90
17740;DHT22;8990;33.226;-97.150;2023-02-15T07:31:46;13.30;99.90
17740;DHT22;8990;33.226;-97.150;2023-02-15T07:34:16;13.40;99.90
17740;DHT22;8990;33.226;-97.150;2023-02-15T07:36:46;13.30;99.90
17740;DHT22;8990;33.226;-97.150;2023-02-15T07:39:15;13.30;99.90
17740;DHT22;8990;33.226;-97.150;2023-02-15T07:41:45;13.20;99.90
17740;DHT22;8990;33.226;-97.150;2023-02-15T07:44:15;13.20;99.90
17740;DHT22;8990;33.226;-97.150;2023-02-15T07:46:46;13.20;99.90
17740;DHT22;8990;33.226;-97.150;2023-02-15T07:49:15;13.20;99.90
17740;DHT22;8990;33.226;-97.150;2023-02-15T07:51:45;13.10;99.90
17740;DHT22;8990;33.226;-97.150;2023-02-15T07:54:14;13.10;99.90
17740;DHT22;8990;33.226;-97.150;2023-02-15T07:56:43;13.10;99.90
17740;DHT22;8990;33.226;-97.150;2023-02-15T07:59:14;13.00;99.90
17740;DHT22;8990;33.226;-97.150;2023-02-15T08:01:45;13.00;99.90
17740;DHT22;8990;33.226;-97.150;2023-02-15T08:04:14;13.00;99.90
17740;DHT22;8990;33.226;-97.150;2023-02-15T08:06:45;12.80;99.90
17740;DHT22;8990;33.226;-97.150;2023-02-15T08:09:15;12.70;99.90
17740;DHT22;8990;33.226;-97.150;2023-02-15T08:11:44;12.70;99.90
17740;DHT22;8990;33.226;-97.150;2023-02-15T08:14:16;12.60;99.90
17740;DHT22;8990;33.226;-97.150;2023-02-15T08:16:48;12.50;99.90
17740;DHT22;8990;33.226;-97.150;2023-02-15T08:19:20;12.50;99.90
17740;DHT22;8990;33.226;-97.150;2023-02-15T08:21:52;12.40;99.90
17740;DHT22;8990;33.226;-97.150;2023-02-15T08:24:26;12.30;99.90
17740;DHT22;8990;33.226;-97.150;2023-02-15T08:26:55;12.30;99.90
17740;DHT22;8990;33.226;-97.150;2023-02-15T08:29:27;12.30;99.90
17740;DHT22;8990;33.226;-97.150;2023-02-15T08:32:00;12.20;99.90
17740;DHT22;8990;33.226;-97.150;2023-02-15T08:34:32;12.20;99.90
17740;DHT22;8990;33.226;-97.150;2023-02-15T08:37:02;12.20;99.90
17740;DHT22;8990;33.226;-97.150;2023-02-15T08:39:32;12.00;99.90
17740;DHT22;8990;33.226;-97.150;2023-02-15T08:42:03;12.00;99.90
17740;DHT22;8990;33.226;-97.150;2023-02-15T08:44:32;12.00;99.90
17740;DHT22;8990;33.226;-97.150;2023-02-15T08:47:03;12.10;99.90
17740;DHT22;8990;33.226;-97.150;2023-02-15T08:49:32;12.00;99.90
17740;DHT22;8990;33.226;-97.150;2023-02-15T08:52:03;12.10;99.90
17740;DHT22;8990;33.226;-97.150;2023-02-15T08:54:32;12.10;99.90
17740;DHT22;8990;33.226;-97.150;2023-02-15T08:57:01;12.20;99.90
17740;DHT22;8990;33.226;-97.150;2023-02-15T08:59:30;12.20;99.90
17740;DHT22;8990;33.226;-97.150;2023-02-15T09:02:03;12.30;99.90
17740;DHT22;8990;33.226;-97.150;2023-02-15T09:04:32;12.40;99.90
17740;DHT22;8990;33.226;-97.150;2023-02-15T09:07:02;12.40;99.90
17740;DHT22;8990;33.226;-97.150;2023-02-15T09:09:31;12.40;99.90
17740;DHT22;8990;33.226;-97.150;2023-02-15T09:12:00;12.40;99.90
17740;DHT22;8990;33.226;-97.150;2023-02-15T09:14:29;12.30;99.90
17740;DHT22;8990;33.226;-97.150;2023-02-15T09:16:59;12.30;99.90
17740;DHT22;8990;33.226;-97.150;2023-02-15T09:19:30;12.30;99.90
17740;DHT22;8990;33.226;-97.150;2023-02-15T09:22:00;12.10;99.90
17740;DHT22;8990;33.226;-97.150;2023-02-15T09:24:32;12.20;99.90
17740;DHT22;8990;33.226;-97.150;2023-02-15T09:27:02;12.10;99.90
17740;DHT22;8990;33.226;-97.150;2023-02-15T09:29:31;12.10;99.90
17740;DHT22;8990;33.226;-97.150;2023-02-15T09:32:00;12.10;99.90
17740;DHT22;8990;33.226;-97.150;2023-02-15T09:34:31;12.10;99.90
17740;DHT22;8990;33.226;-97.150;2023-02-15T09:37:01;12.00;99.90
17740;DHT22;8990;33.226;-97.150;2023-02-15T09:39:31;12.00;99.90
17740;DHT22;8990;33.226;-97.150;2023-02-15T09:42:28;12.00;99.90
17740;DHT22;8990;33.226;-97.150;2023-02-15T09:48:21;11.90;99.90
17740;DHT22;8990;33.226;-97.150;2023-02-15T09:51:06;11.90;99.90
17740;DHT22;8990;33.226;-97.150;2023-02-15T09:53:50;11.70;99.90
17740;DHT22;8990;33.226;-97.150;2023-02-15T09:56:30;11.70;99.90
17740;DHT22;8990;33.226;-97.150;2023-02-15T09:59:13;11.50;99.90
17740;DHT22;8990;33.226;-97.150;2023-02-15T10:01:52;11.40;99.90
17740;DHT22;8990;33.226;-97.150;2023-02-15T10:04:41;11.30;99.90
17740;DHT22;8990;33.226;-97.150;2023-02-15T10:07:22;11.10;99.90
17740;DHT22;8990;33.226;-97.150;2023-02-15T10:10:13;11.00;99.90
17740;DHT22;8990;33.226;-97.150;2023-02-15T10:12:57;10.90;99.90
17740;DHT22;8990;33.226;-97.150;2023-02-15T10:15:41;10.80;99.90
17740;DHT22;8990;33.226;-97.150;2023-02-15T10:18:32;10.80;99.90
17740;DHT22;8990;33.226;-97.150;2023-02-15T10:21:11;10.50;99.90
17740;DHT22;8990;33.226;-97.150;2023-02-15T10:24:01;10.20;99.90
17740;DHT22;8990;33.226;-97.150;2023-02-15T10:26:37;10.10;99.90
17740;DHT22;8990;33.226;-97.150;2023-02-15T10:29:10;10.10;99.90
17740;DHT22;8990;33.226;-97.150;2023-02-15T10:31:48;9.80;99.90
17740;DHT22;8990;33.226;-97.150;2023-02-15T10:34:22;9.90;99.90
17740;DHT22;8990;33.226;-97.150;2023-02-15T10:37:16;9.80;99.90
17740;DHT22;8990;33.226;-97.150;2023-02-15T10:39:58;10.00;99.90
17740;DHT22;8990;33.226;-97.150;2023-02-15T10:42:36;10.00;99.90
17740;DHT22;8990;33.226;-97.150;2023-02-15T10:45:18;9.90;99.90
17740;DHT22;8990;33.226;-97.150;2023-02-15T10:48:11;9.90;99.90
17740;DHT22;8990;33.226;-97.150;2023-02-15T10:50:48;10.00;99.90
17740;DHT22;8990;33.226;-97.150;2023-02-15T10:53:34;9.70;99.90
17740;DHT22;8990;33.226;-97.150;2023-02-15T10:56:14;9.70;99.90
17740;DHT22;8990;33.226;-97.150;2023-02-15T10:59:06;9.60;99.90
17740;DHT22;8990;33.226;-97.150;2023-02-15T11:01:43;9.60;99.90
17740;DHT22;8990;33.226;-97.150;2023-02-15T11:04:46;9.50;99.90
17740;DHT22;8990;33.226;-97.150;2023-02-15T11:07:22;9.50;99.90
17740;DHT22;8990;33.226;-97.150;2023-02-15T11:10:00;9.40;99.90
17740;DHT22;8990;33.226;-97.150;2023-02-15T11:12:33;9.10;99.90
17740;DHT22;8990;33.226;-97.150;2023-02-15T11:15:11;8.90;99.90
17740;DHT22;8990;33.226;-97.150;2023-02-15T11:17:49;8.70;99.90
17740;DHT22;8990;33.226;-97.150;2023-02-15T11:20:25;8.60;99.90
17740;DHT22;8990;33.226;-97.150;2023-02-15T11:22:56;8.50;99.90
17740;DHT22;8990;33.226;-97.150;2023-02-15T11:25:30;8.50;99.90
17740;DHT22;8990;33.226;-97.150;2023-02-15T11:28:05;8.50;99.90
17740;DHT22;8990;33.226;-97.150;2023-02-15T11:30:43;8.40;99.90
17740;DHT22;8990;33.226;-97.150;2023-02-15T11:33:18;8.20;99.90
17740;DHT22;8990;33.226;-97.150;2023-02-15T11:35:52;8.40;99.90
17740;DHT22;8990;33.226;-97.150;2023-02-15T11:38:23;8.30;99.90
17740;DHT22;8990;33.226;-97.150;2023-02-15T11:40:57;8.40;99.90
17740;DHT22;8990;33.226;-97.150;2023-02-15T11:43:33;8.40;99.90
17740;DHT22;8990;33.226;-97.150;2023-02-15T11:46:03;8.40;99.90
17740;DHT22;8990;33.226;-97.150;2023-02-15T11:48:33;8.40;99.90
17740;DHT22;8990;33.226;-97.150;2023-02-15T11:51:03;8.60;99.90
17740;DHT22;8990;33.226;-97.150;2023-02-15T11:53:37;8.70;99.90
17740;DHT22;8990;33.226;-97.150;2023-02-15T11:56:13;8.70;99.90
17740;DHT22;8990;33.226;-97.150;2023-02-15T11:58:49;9.00;99.90
17740;DHT22;8990;33.226;-97.150;2023-02-15T12:01:23;9.20;99.90
17740;DHT22;8990;33.226;-97.150;2023-02-15T12:03:57;9.30;99.90
17740;DHT22;8990;33.226;-97.150;2023-02-15T12:06:32;9.30;99.90
17740;DHT22;8990;33.226;-97.150;2023-02-15T12:09:05;9.50;99.90
17740;DHT22;8990;33.226;-97.150;2023-02-15T12:11:37;9.50;99.90
17740;DHT22;8990;33.226;-97.150;2023-02-15T12:14:10;9.50;99.90
17740;DHT22;8990;33.226;-97.150;2023-02-15T12:16:45;9.50;99.90
17740;DHT22;8990;33.226;-97.150;2023-02-15T12:19:33;9.50;99.90
17740;DHT22;8990;33.226;-97.150;2023-02-15T12:22:04;9.60;99.90
17740;DHT22;8990;33.226;-97.150;2023-02-15T12:24:37;9.50;99.90
17740;DHT22;8990;33.226;-97.150;2023-02-15T12:27:15;9.70;99.90
17740;DHT22;8990;33.226;-97.150;2023-02-15T12:29:49;9.70;99.90
17740;DHT22;8990;33.226;-97.150;2023-02-15T12:32:22;9.70;99.90
17740;DHT22;8990;33.226;-97.150;2023-02-15T12:34:59;9.80;99.90
17740;DHT22;8990;33.226;-97.150;2023-02-15T12:37:30;9.80;99.90
17740;DHT22;8990;33.226;-97.150;2023-02-15T12:40:04;9.80;99.90
17740;DHT22;8990;33.226;-97.150;2023-02-15T12:42:47;9.60;99.90
17740;DHT22;8990;33.226;-97.150;2023-02-15T12:45:27;9.60;99.90
17740;DHT22;8990;33.226;-97.150;2023-02-15T12:48:12;9.60;99.90
17740;DHT22;8990;33.226;-97.150;2023-02-15T12:50:43;9.50;99.90
17740;DHT22;8990;33.226;-97.150;2023-02-15T12:53:17;9.40;99.90
17740;DHT22;8990;33.226;-97.150;2023-02-15T12:55:52;9.50;99.90
17740;DHT22;8990;33.226;-97.150;2023-02-15T12:58:22;9.50;99.90
17740;DHT22;8990;33.226;-97.150;2023-02-15T13:01:09;9.10;99.90
17740;DHT22;8990;33.226;-97.150;2023-02-15T13:03:58;9.00;99.90
17740;DHT22;8990;33.226;-97.150;2023-02-15T13:06:27;9.10;99.90
17740;DHT22;8990;33.226;-97.150;2023-02-15T13:09:06;9.00;99.90
17740;DHT22;8990;33.226;-97.150;2023-02-15T13:11:39;9.00;99.90
17740;DHT22;8990;33.226;-97.150;2023-02-15T13:14:18;9.00;99.90
17740;DHT22;8990;33.226;-97.150;2023-02-15T13:16:51;9.00;99.90
17740;DHT22;8990;33.226;-97.150;2023-02-15T13:19:29;8.90;99.90
17740;DHT22;8990;33.226;-97.150;2023-02-15T13:22:05;8.90;99.90
17740;DHT22;8990;33.226;-97.150;2023-02-15T13:24:37;9.10;99.90
17740;DHT22;8990;33.226;-97.150;2023-02-15T13:27:14;9.20;99.90
17740;DHT22;8990;33.226;-97.150;2023-02-15T13:29:45;9.20;99.90
17740;DHT22;8990;33.226;-97.150;2023-02-15T13:32:25;9.30;99.90
17740;DHT22;8990;33.226;-97.150;2023-02-15T13:34:58;9.50;99.90
17740;DHT22;8990;33.226;-97.150;2023-02-15T13:37:44;9.60;99.90
17740;DHT22;8990;33.226;-97.150;2023-02-15T13:40:18;9.80;99.90
17740;DHT22;8990;33.226;-97.150;2023-02-15T13:42:56;10.00;99.90
17740;DHT22;8990;33.226;-97.150;2023-02-15T13:45:39;10.10;99.90
17740;DHT22;8990;33.226;-97.150;2023-02-15T13:48:16;10.10;99.90
17740;DHT22;8990;33.226;-97.150;2023-02-15T13:51:00;10.40;99.90
17740;DHT22;8990;33.226;-97.150;2023-02-15T13:53:48;10.50;99.90
17740;DHT22;8990;33.226;-97.150;2023-02-15T13:56:23;10.70;99.90
17740;DHT22;8990;33.226;-97.150;2023-02-15T13:59:15;10.80;99.90
17740;DHT22;8990;33.226;-97.150;2023-02-15T14:01:55;10.90;99.90
17740;DHT22;8990;33.226;-97.150;2023-02-15T14:05:05;11.10;99.90
17740;DHT22;8990;33.226;-97.150;2023-02-15T14:07:56;11.30;99.90
17740;DHT22;8990;33.226;-97.150;2023-02-15T14:10:52;11.40;99.90
17740;DHT22;8990;33.226;-97.150;2023-02-15T14:13:43;11.50;99.90
17740;DHT22;8990;33.226;-97.150;2023-02-15T14:16:23;11.60;99.90
17740;DHT22;8990;33.226;-97.150;2023-02-15T14:19:09;11.80;99.90
17740;DHT22;8990;33.226;-97.150;2023-02-15T14:21:47;11.90;99.90
17740;DHT22;8990;33.226;-97.150;2023-02-15T14:24:25;12.00;99.90
17740;DHT22;8990;33.226;-97.150;2023-02-15T14:27:07;12.10;99.90
17740;DHT22;8990;33.226;-97.150;2023-02-15T14:29:53;12.20;99.90
17740;DHT22;8990;33.226;-97.150;2023-02-15T14:32:29;12.20;99.90
17740;DHT22;8990;33.226;-97.150;2023-02-15T14:35:03;12.30;99.90
17740;DHT22;8990;33.226;-97.150;2023-02-15T14:37:43;12.30;99.90
17740;DHT22;8990;33.226;-97.150;2023-02-15T14:40:24;12.40;99.90
17740;DHT22;8990;33.226;-97.150;2023-02-15T14:43:23;12.50;99.90
17740;DHT22;8990;33.226;-97.150;2023-02-15T14:45:58;12.70;99.90
17740;DHT22;8990;33.226;-97.150;2023-02-15T14:48:31;12.80;99.90
17740;DHT22;8990;33.226;-97.150;2023-02-15T14:51:02;13.00;99.90
17740;DHT22;8990;33.226;-97.150;2023-02-15T14:53:41;13.20;99.90
17740;DHT22;8990;33.226;-97.150;2023-02-15T14:56:22;13.40;99.90
17740;DHT22;8990;33.226;-97.150;2023-02-15T14:59:12;13.50;99.90
17740;DHT22;8990;33.226;-97.150;2023-02-15T15:01:52;13.60;99.90
17740;DHT22;8990;33.226;-97.150;2023-02-15T15:04:29;13.80;99.90
17740;DHT22;8990;33.226;-97.150;2023-02-15T15:07:09;14.00;99.90
17740;DHT22;8990;33.226;-97.150;2023-02-15T15:09:42;14.20;99.90
17740;DHT22;8990;33.226;-97.150;2023-02-15T15:12:37;14.30;99.90
17740;DHT22;8990;33.226;-97.150;2023-02-15T15:15:12;14.50;99.90
17740;DHT22;8990;33.226;-97.150;2023-02-15T15:17:57;14.60;99.90
17740;DHT22;8990;33.226;-97.150;2023-02-15T15:20:54;14.80;99.90
17740;DHT22;8990;33.226;-97.150;2023-02-15T15:23:51;15.00;99.90
17740;DHT22;8990;33.226;-97.150;2023-02-15T15:26:28;15.20;99.90
17740;DHT22;8990;33.226;-97.150;2023-02-15T15:28:59;15.30;99.90
17740;DHT22;8990;33.226;-97.150;2023-02-15T15:31:39;15.50;99.90
17740;DHT22;8990;33.226;-97.150;2023-02-15T15:44:02;16.30;99.90
17740;DHT22;8990;33.226;-97.150;2023-02-15T15:46:58;16.40;99.90
17740;DHT22;8990;33.226;-97.150;2023-02-15T15:49:32;16.60;99.90
17740;DHT22;8990;33.226;-97.150;2023-02-15T15:52:12;16.80;99.90
17740;DHT22;8990;33.226;-97.150;2023-02-15T15:54:42;16.90;99.90
17740;DHT22;8990;33.226;-97.150;2023-02-15T15:57:17;17.10;99.90
17740;DHT22;8990;33.226;-97.150;2023-02-15T15:59:49;17.20;99.90
17740;DHT22;8990;33.226;-97.150;2023-02-15T16:02:20;17.40;99.90
17740;DHT22;8990;33.226;-97.150;2023-02-15T16:04:50;17.60;99.90
17740;DHT22;8990;33.226;-97.150;2023-02-15T16:07:26;17.70;99.90
17740;DHT22;8990;33.226;-97.150;2023-02-15T16:09:57;17.80;99.90
17740;DHT22;8990;33.226;-97.150;2023-02-15T16:12:28;17.90;99.90
17740;DHT22;8990;33.226;-97.150;2023-02-15T16:15:02;18.00;99.90
17740;DHT22;8990;33.226;-97.150;2023-02-15T16:17:33;18.10;99.90
17740;DHT22;8990;33.226;-97.150;2023-02-15T16:20:11;18.20;99.90
17740;DHT22;8990;33.226;-97.150;2023-02-15T16:22:47;18.40;99.90
17740;DHT22;8990;33.226;-97.150;2023-02-15T16:25:31;18.50;99.90
17740;DHT22;8990;33.226;-97.150;2023-02-15T16:28:07;18.60;99.90